Alsen — P3EE9 — position and weather

sailwx.info

Track history (hours):
 
Tides and Currents Weather Stations Pressure Air Temp Water Temp Dewpoint Dewpoint Depression Visibility Wind Speed Wind Dir Waves Ship Positions

Alsen

Last reported at 2018-Jul-17 18:29 UTC. Time now 2018-Jul-19 15:21 UTC.
Position N 37°03' W 000°17'.

Length 100 m; draft 4.1 m.

Type: Cargo ship. MMSI: 210350000.

Date/timePositionNaut miles runAvg speedWind from/ knotsBaromVisibWave heightAir tempDewpointWater temp
2018-Jul-17 18:29N 37°03' W 000°17'5 9.2
2018-Jul-17 18:00N 37°05' W 000°13'4 9.1
2018-Jul-17 17:30N 37°08' W 000°09'4 8.9
2018-Jul-17 17:00N 37°11' W 000°04'4 8.7
2018-Jul-17 16:30N 37°14' W 000°00'4 8.7
2018-Jul-17 16:00N 37°17' E 000°04'4 8.7
2018-Jul-17 15:30N 37°20' E 000°08'4 8.7
2018-Jul-17 15:00N 37°23' E 000°12'4 8.7
2018-Jul-17 14:29N 37°25' E 000°17'5 8.9
2018-Jul-17 13:59N 37°28' E 000°21'4 8.9
2018-Jul-17 13:30N 37°31' E 000°25'4 9.0
2018-Jul-17 13:00N 37°34' E 000°29'4 9.0
2018-Jul-17 12:30N 37°37' E 000°34'5 9.0
2018-Jul-17 11:59N 37°40' E 000°38'22 9.2
2018-Jul-17 09:35N 37°54' E 000°60'2 7.4
2018-Jul-17 09:21N 37°55' E 001°02'0 0.8
2018-Jul-17 09:00N 37°55' E 001°02'1 0.8
2018-Jul-17 08:11N 37°55' E 001°03'0 0.6
2018-Jul-17 07:53N 37°55' E 001°03'1 0.5
2018-Jul-17 06:41N 37°55' E 001°04'0 0.4
2018-Jul-17 06:25N 37°55' E 001°04'0 0.3
2018-Jul-17 06:00N 37°55' E 001°04'2 0.6
2018-Jul-17 02:45N 37°57' E 001°03'1 1.2
2018-Jul-17 02:06N 37°58' E 001°02'1 1.3
2018-Jul-17 01:41N 37°58' E 001°01'0 1.4
2018-Jul-17 01:28N 37°58' E 001°01'1 1.4
2018-Jul-17 00:42N 37°58' E 000°60'2 1.5
2018-Jul-16 23:23N 37°58' E 000°57'3 1.6
2018-Jul-16 21:32N 37°58' E 000°53'0 1.6
2018-Jul-16 21:30N 37°58' E 000°53'72 4.1
2018-Jul-16 04:08N 38°16' E 002°21'1 5.7
2018-Jul-16 04:00N 38°16' E 002°22'4 6.0
2018-Jul-16 03:24N 38°16' E 002°27'6 7.0
2018-Jul-16 02:32N 38°16' E 002°35'0 7.1
2018-Jul-16 02:29N 38°16' E 002°35'3 7.3
2018-Jul-16 02:00N 38°16' E 002°40'4 7.6
2018-Jul-16 01:30N 38°15' E 002°44'5 7.6
2018-Jul-16 00:48N 38°15' E 002°51'2 7.8
2018-Jul-16 00:30N 38°15' E 002°54'31 8.1
2018-Jul-15 20:39N 38°13' E 003°34'23 8.7
2018-Jul-15 18:00N 38°13' E 004°03'7 9.1
2018-Jul-15 17:15N 38°10' E 004°10'3 9.4
2018-Jul-15 16:54N 38°08' E 004°14'2010.0
2018-Jul-15 14:51N 37°58' E 004°36'1010.1
2018-Jul-15 13:52N 37°53' E 004°47'  
Track history (hours):
 
Tides and Currents Weather Stations Pressure Air Temp Water Temp Dewpoint Dewpoint Depression Visibility Wind Speed Wind Dir Waves Ship Positions

Alsen

Last reported at 2018-Jul-17 18:29 UTC. Time now 2018-Jul-19 15:21 UTC.
Position N 37°03' W 000°17'.

Length 100 m; draft 4.1 m.

Type: Cargo ship. MMSI: 210350000.

Date/timePositionNaut miles runAvg speedWind from/ knotsBaromVisibWave heightAir tempDewpointWater temp
2018-Jul-17 18:29N 37°03' W 000°17'5 9.2
2018-Jul-17 18:00N 37°05' W 000°13'4 9.1
2018-Jul-17 17:30N 37°08' W 000°09'4 8.9
2018-Jul-17 17:00N 37°11' W 000°04'4 8.7
2018-Jul-17 16:30N 37°14' W 000°00'4 8.7
2018-Jul-17 16:00N 37°17' E 000°04'4 8.7
2018-Jul-17 15:30N 37°20' E 000°08'4 8.7
2018-Jul-17 15:00N 37°23' E 000°12'4 8.7
2018-Jul-17 14:29N 37°25' E 000°17'5 8.9
2018-Jul-17 13:59N 37°28' E 000°21'4 8.9
2018-Jul-17 13:30N 37°31' E 000°25'4 9.0
2018-Jul-17 13:00N 37°34' E 000°29'4 9.0
2018-Jul-17 12:30N 37°37' E 000°34'5 9.0
2018-Jul-17 11:59N 37°40' E 000°38'22 9.2
2018-Jul-17 09:35N 37°54' E 000°60'2 7.4
2018-Jul-17 09:21N 37°55' E 001°02'0 0.8
2018-Jul-17 09:00N 37°55' E 001°02'1 0.8
2018-Jul-17 08:11N 37°55' E 001°03'0 0.6
2018-Jul-17 07:53N 37°55' E 001°03'1 0.5
2018-Jul-17 06:41N 37°55' E 001°04'0 0.4
2018-Jul-17 06:25N 37°55' E 001°04'0 0.3
2018-Jul-17 06:00N 37°55' E 001°04'2 0.6
2018-Jul-17 02:45N 37°57' E 001°03'1 1.2
2018-Jul-17 02:06N 37°58' E 001°02'1 1.3
2018-Jul-17 01:41N 37°58' E 001°01'0 1.4
2018-Jul-17 01:28N 37°58' E 001°01'1 1.4
2018-Jul-17 00:42N 37°58' E 000°60'2 1.5
2018-Jul-16 23:23N 37°58' E 000°57'3 1.6
2018-Jul-16 21:32N 37°58' E 000°53'0 1.6
2018-Jul-16 21:30N 37°58' E 000°53'72 4.1
2018-Jul-16 04:08N 38°16' E 002°21'1 5.7
2018-Jul-16 04:00N 38°16' E 002°22'4 6.0
2018-Jul-16 03:24N 38°16' E 002°27'6 7.0
2018-Jul-16 02:32N 38°16' E 002°35'0 7.1
2018-Jul-16 02:29N 38°16' E 002°35'3 7.3
2018-Jul-16 02:00N 38°16' E 002°40'4 7.6
2018-Jul-16 01:30N 38°15' E 002°44'5 7.6
2018-Jul-16 00:48N 38°15' E 002°51'2 7.8
2018-Jul-16 00:30N 38°15' E 002°54'31 8.1
2018-Jul-15 20:39N 38°13' E 003°34'23 8.7
2018-Jul-15 18:00N 38°13' E 004°03'7 9.1
2018-Jul-15 17:15N 38°10' E 004°10'3 9.4
2018-Jul-15 16:54N 38°08' E 004°14'2010.0
2018-Jul-15 14:51N 37°58' E 004°36'1010.1
2018-Jul-15 13:52N 37°53' E 004°47'  

Dump ship's entire track history